Time,TemperatureF,DewpointF,PressureIn,WindDirection,WindDirectionDegrees,WindSpeedMPH,WindSpeedGustMPH,Humidity,HourlyPrecipIn,Conditions,Clouds,dailyrainin,SoftwareType,DateUTC
2013-09-26 00:00:00,43.0,41.4,29.94,NNE,32,0.0,0.0,94,0.00,CLR,,0.01,WeatherDisplay:10.37,2013-09-26 04:00:00,
2013-09-26 00:01:00,42.9,41.3,29.94,NNE,32,0.0,0.0,94,0.00,RA,,0.00,WeatherDisplay:10.37,2013-09-26 04:01:00,
2013-09-26 00:06:00,42.9,41.3,29.94,NNE,32,0.0,0.0,94,0.00,RA,,0.00,WeatherDisplay:10.37,2013-09-26 04:06:00,
2013-09-26 00:11:00,42.7,41.1,29.94,NNE,32,0.0,0.0,94,0.00,CLR,,0.00,WeatherDisplay:10.37,2013-09-26 04:11:00,
2013-09-26 00:16:00,42.6,41.0,29.94,NNE,32,0.0,0.0,94,0.00,CLR,,0.00,WeatherDisplay:10.37,2013-09-26 04:16:00,
2013-09-26 00:21:00,42.5,40.9,29.94,NNE,32,0.0,0.0,94,0.00,CLR,,0.00,WeatherDisplay:10.37,2013-09-26 04:21:00,
2013-09-26 00:26:00,42.5,40.9,29.94,NNE,32,0.0,0.0,94,0.00,CLR,,0.00,WeatherDisplay:10.37,2013-09-26 04:26:00,
2013-09-26 00:31:00,42.5,40.9,29.94,NNE,32,0.0,0.0,94,0.00,CLR,,0.00,WeatherDisplay:10.37,2013-09-26 04:31:00,
2013-09-26 00:36:00,42.5,40.9,29.94,NNE,32,0.5,1.2,94,0.00,CLR,,0.00,WeatherDisplay:10.37,2013-09-26 04:36:00,
2013-09-26 00:41:00,42.5,40.9,29.94,NNE,32,0.0,0.0,94,0.00,CLR,,0.00,WeatherDisplay:10.37,2013-09-26 04:41:00,
2013-09-26 00:46:00,42.5,40.9,29.94,NNE,32,0.0,0.0,94,0.00,CLR,,0.00,WeatherDisplay:10.37,2013-09-26 04:46:00,
2013-09-26 00:51:00,42.4,40.8,29.94,NNE,32,0.0,0.0,94,0.00,CLR,,0.00,WeatherDisplay:10.37,2013-09-26 04:51:00,
2013-09-26 00:56:00,42.5,40.9,29.94,NNE,32,0.0,0.0,94,0.00,CLR,,0.00,WeatherDisplay:10.37,2013-09-26 04:56:00,
2013-09-26 01:01:00,42.4,40.8,29.94,NNE,32,0.7,2.3,94,0.00,CLR,,0.00,WeatherDisplay:10.37,2013-09-26 05:01:00,
2013-09-26 01:06:00,42.3,40.7,29.94,NNE,32,0.0,0.0,94,0.00,CLR,,0.00,WeatherDisplay:10.37,2013-09-26 05:06:00,
2013-09-26 01:11:00,42.3,40.7,29.94,NNE,32,0.0,0.0,94,0.00,CLR,,0.00,WeatherDisplay:10.37,2013-09-26 05:11:00,
2013-09-26 01:16:00,42.2,40.6,29.94,NNE,32,0.0,0.0,94,0.00,CLR,,0.00,WeatherDisplay:10.37,2013-09-26 05:16:00,
2013-09-26 01:21:00,42.2,40.6,29.94,NNE,32,0.0,0.0,94,0.00,CLR,,0.00,WeatherDisplay:10.37,2013-09-26 05:21:00,
2013-09-26 01:26:00,42.2,40.6,29.94,NNE,32,0.0,0.0,94,0.00,CLR,,0.00,WeatherDisplay:10.37,2013-09-26 05:26:00,
2013-09-26 01:31:00,42.1,40.5,29.94,NNE,32,0.0,0.0,94,0.00,CLR,,0.00,WeatherDisplay:10.37,2013-09-26 05:31:00,
2013-09-26 01:36:00,42.0,40.4,29.94,NNE,32,0.0,0.0,94,0.00,CLR,,0.00,WeatherDisplay:10.37,2013-09-26 05:36:00,
2013-09-26 01:41:00,41.9,40.3,29.94,NNE,32,0.0,0.0,94,0.00,CLR,,0.00,WeatherDisplay:10.37,2013-09-26 05:41:00,
2013-09-26 01:46:00,41.8,40.2,29.94,NNE,32,0.0,0.0,94,0.00,CLR,,0.00,WeatherDisplay:10.37,2013-09-26 05:46:00,
2013-09-26 01:51:00,41.6,40.0,29.94,NNE,32,0.0,1.2,94,0.00,CLR,,0.00,WeatherDisplay:10.37,2013-09-26 05:51:00,
2013-09-26 01:56:00,41.6,40.0,29.94,NNE,32,0.2,1.2,94,0.00,CLR,,0.00,WeatherDisplay:10.37,2013-09-26 05:56:00,
2013-09-26 02:01:00,41.6,40.0,29.94,NNE,32,0.9,2.3,94,0.00,CLR,,0.00,WeatherDisplay:10.37,2013-09-26 06:01:00,
2013-09-26 02:06:00,41.7,40.1,29.94,NNE,32,0.0,0.0,94,0.00,CLR,,0.00,WeatherDisplay:10.37,2013-09-26 06:06:00,
2013-09-26 02:11:00,41.8,39.9,29.94,NNE,32,0.0,0.0,93,0.00,CLR,,0.00,WeatherDisplay:10.37,2013-09-26 06:11:00,
2013-09-26 02:16:00,41.7,40.1,29.94,NNE,32,0.0,0.0,94,0.00,CLR,,0.00,WeatherDisplay:10.37,2013-09-26 06:16:00,
2013-09-26 02:21:00,41.6,40.0,29.94,NNE,32,0.0,0.0,94,0.00,CLR,,0.00,WeatherDisplay:10.37,2013-09-26 06:21:00,
2013-09-26 02:26:00,41.5,39.9,29.94,NNE,32,0.0,0.0,94,0.00,CLR,,0.00,WeatherDisplay:10.37,2013-09-26 06:26:00,
2013-09-26 02:31:00,41.4,39.8,29.94,NNE,32,0.0,0.0,94,0.00,CLR,,0.00,WeatherDisplay:10.37,2013-09-26 06:31:00,
2013-09-26 02:36:00,41.3,39.7,29.94,NNE,32,0.0,0.0,94,0.00,CLR,,0.00,WeatherDisplay:10.37,2013-09-26 06:36:00,
2013-09-26 02:41:00,41.2,39.6,29.94,NNE,32,0.0,0.0,94,0.00,CLR,,0.00,WeatherDisplay:10.37,2013-09-26 06:41:00,
2013-09-26 02:46:00,41.1,39.5,29.94,NNE,32,0.0,0.0,94,0.00,CLR,,0.00,WeatherDisplay:10.37,2013-09-26 06:46:00,
2013-09-26 02:51:00,40.9,39.3,29.94,NNE,32,0.0,0.0,94,0.00,CLR,,0.00,WeatherDisplay:10.37,2013-09-26 06:51:00,
2013-09-26 02:56:00,40.8,39.2,29.94,NNE,32,0.0,0.0,94,0.00,CLR,,0.00,WeatherDisplay:10.37,2013-09-26 06:56:00,
2013-09-26 03:01:00,40.8,39.2,29.94,NNE,32,0.0,0.0,94,0.00,CLR,,0.00,WeatherDisplay:10.37,2013-09-26 07:01:00,
2013-09-26 03:06:00,40.7,39.1,29.94,NNE,32,0.0,0.0,94,0.00,CLR,,0.00,WeatherDisplay:10.37,2013-09-26 07:06:00,
2013-09-26 03:11:00,40.8,39.2,29.94,NNE,32,0.0,0.0,94,0.00,CLR,,0.00,WeatherDisplay:10.37,2013-09-26 07:11:00,
2013-09-26 03:16:00,40.7,39.1,29.94,NNE,32,0.0,0.0,94,0.00,CLR,,0.00,WeatherDisplay:10.37,2013-09-26 07:16:00,
2013-09-26 03:21:00,40.7,39.1,29.94,NNE,32,0.0,0.0,94,0.00,CLR,,0.00,WeatherDisplay:10.37,2013-09-26 07:21:00,
2013-09-26 03:26:00,40.8,39.2,29.94,NNE,32,0.0,0.0,94,0.00,CLR,,0.00,WeatherDisplay:10.37,2013-09-26 07:26:00,
2013-09-26 03:31:00,40.8,39.2,29.94,NNE,32,0.0,0.0,94,0.00,CLR,,0.00,WeatherDisplay:10.37,2013-09-26 07:31:00,
2013-09-26 03:36:00,40.7,39.1,29.94,NNE,32,0.0,0.0,94,0.00,CLR,,0.00,WeatherDisplay:10.37,2013-09-26 07:36:00,
2013-09-26 03:41:00,40.6,39.0,29.94,NNE,32,0.0,0.0,94,0.00,CLR,,0.00,WeatherDisplay:10.37,2013-09-26 07:41:00,
2013-09-26 03:46:00,40.6,39.0,29.94,NNE,32,0.0,0.0,94,0.00,CLR,,0.00,WeatherDisplay:10.37,2013-09-26 07:46:00,
2013-09-26 03:51:00,40.5,38.9,29.94,NNE,32,0.0,0.0,94,0.00,CLR,,0.00,WeatherDisplay:10.37,2013-09-26 07:51:00,
2013-09-26 03:56:00,40.5,38.9,29.95,NNE,32,0.0,0.0,94,0.00,CLR,,0.00,WeatherDisplay:10.37,2013-09-26 07:56:00,
2013-09-26 04:01:00,40.4,38.8,29.95,NNE,32,0.0,0.0,94,0.00,CLR,,0.00,WeatherDisplay:10.37,2013-09-26 08:01:00,
2013-09-26 04:07:00,40.3,38.7,29.95,NNE,32,0.0,0.0,94,0.00,CLR,,0.00,WeatherDisplay:10.37,2013-09-26 08:07:00,
2013-09-26 04:12:00,40.2,38.6,29.95,NNE,32,0.0,0.0,94,0.00,CLR,,0.00,WeatherDisplay:10.37,2013-09-26 08:12:00,
2013-09-26 04:17:00,40.0,38.4,29.95,NNE,32,0.0,0.0,94,0.00,CLR,,0.00,WeatherDisplay:10.37,2013-09-26 08:17:00,
2013-09-26 04:22:00,40.0,38.4,29.95,NNE,32,0.0,0.0,94,0.00,CLR,,0.00,WeatherDisplay:10.37,2013-09-26 08:22:00,
2013-09-26 04:27:00,39.9,38.3,29.95,NNE,32,0.0,0.0,94,0.00,CLR,,0.00,WeatherDisplay:10.37,2013-09-26 08:27:00,
2013-09-26 04:32:00,39.8,38.2,29.95,NNE,32,0.0,0.0,94,0.00,CLR,,0.00,WeatherDisplay:10.37,2013-09-26 08:32:00,
2013-09-26 04:37:00,39.8,38.2,29.95,NNE,32,0.0,0.0,94,0.00,CLR,,0.00,WeatherDisplay:10.37,2013-09-26 08:37:00,
2013-09-26 04:42:00,39.7,38.1,29.95,NNE,32,0.0,0.0,94,0.00,CLR,,0.00,WeatherDisplay:10.37,2013-09-26 08:42:00,
2013-09-26 04:47:00,39.8,38.2,29.95,NNE,32,0.0,0.0,94,0.00,CLR,,0.00,WeatherDisplay:10.37,2013-09-26 08:47:00,
2013-09-26 04:52:00,39.8,38.2,29.96,NNE,32,0.0,0.0,94,0.00,CLR,,0.00,WeatherDisplay:10.37,2013-09-26 08:52:00,
2013-09-26 04:57:00,39.9,38.3,29.95,NNE,32,0.0,0.0,94,0.00,CLR,,0.00,WeatherDisplay:10.37,2013-09-26 08:57:00,
2013-09-26 05:02:00,39.9,38.3,29.96,NNE,32,0.0,0.0,94,0.00,CLR,,0.00,WeatherDisplay:10.37,2013-09-26 09:02:00,
2013-09-26 05:07:00,39.9,38.3,29.96,NNE,32,0.0,0.0,94,0.00,CLR,,0.00,WeatherDisplay:10.37,2013-09-26 09:07:00,
2013-09-26 05:12:00,39.8,38.2,29.96,NNE,32,0.0,0.0,94,0.00,CLR,,0.00,WeatherDisplay:10.37,2013-09-26 09:12:00,
2013-09-26 05:17:00,39.8,38.2,29.96,NNE,32,0.0,0.0,94,0.00,CLR,,0.00,WeatherDisplay:10.37,2013-09-26 09:17:00,
2013-09-26 05:22:00,39.8,38.2,29.96,NNE,32,0.0,0.0,94,0.00,CLR,,0.00,WeatherDisplay:10.37,2013-09-26 09:22:00,
2013-09-26 05:27:00,39.7,38.1,29.97,NNE,32,0.0,0.0,94,0.00,CLR,,0.00,WeatherDisplay:10.37,2013-09-26 09:27:00,
2013-09-26 05:32:00,39.7,38.1,29.96,NNE,32,0.0,0.0,94,0.00,CLR,,0.00,WeatherDisplay:10.37,2013-09-26 09:32:00,
2013-09-26 05:37:00,39.6,38.0,29.97,NNE,32,0.0,0.0,94,0.00,CLR,,0.00,WeatherDisplay:10.37,2013-09-26 09:37:00,
2013-09-26 05:42:00,39.5,37.9,29.97,NNE,32,0.2,1.2,94,0.00,CLR,,0.00,WeatherDisplay:10.37,2013-09-26 09:42:00,
2013-09-26 05:47:00,39.6,38.0,29.97,NNE,32,0.0,0.0,94,0.00,CLR,,0.00,WeatherDisplay:10.37,2013-09-26 09:47:00,
2013-09-26 05:52:00,39.6,38.0,29.97,NNE,32,0.0,0.0,94,0.00,CLR,,0.00,WeatherDisplay:10.37,2013-09-26 09:52:00,
2013-09-26 05:57:00,39.5,37.9,29.97,NNE,32,0.0,0.0,94,0.00,CLR,,0.00,WeatherDisplay:10.37,2013-09-26 09:57:00,
2013-09-26 06:02:00,39.5,37.9,29.97,NNE,32,0.9,2.3,94,0.00,CLR,,0.00,WeatherDisplay:10.37,2013-09-26 10:02:00,
2013-09-26 06:07:00,39.6,38.0,29.97,NNE,32,0.6,1.2,94,0.00,CLR,,0.00,WeatherDisplay:10.37,2013-09-26 10:07:00,
2013-09-26 06:12:00,39.7,38.1,29.97,NNE,32,0.0,0.0,94,0.00,CLR,,0.00,WeatherDisplay:10.37,2013-09-26 10:12:00,
2013-09-26 06:17:00,39.7,38.1,29.97,NNE,32,0.0,0.0,94,0.00,CLR,,0.00,WeatherDisplay:10.37,2013-09-26 10:17:00,
2013-09-26 06:22:00,39.7,38.1,29.97,NNE,32,0.0,0.0,94,0.00,CLR,,0.00,WeatherDisplay:10.37,2013-09-26 10:22:00,
2013-09-26 06:27:00,39.8,38.2,29.98,NNE,32,0.0,0.0,94,0.00,CLR,,0.00,WeatherDisplay:10.37,2013-09-26 10:27:00,
2013-09-26 06:32:00,39.8,38.2,29.98,NNE,32,0.0,0.0,94,0.00,CLR,,0.00,WeatherDisplay:10.37,2013-09-26 10:32:00,
2013-09-26 06:37:00,39.8,38.2,29.98,NNE,32,0.1,0.0,94,0.00,CLR,,0.00,WeatherDisplay:10.37,2013-09-26 10:37:00,
2013-09-26 06:42:00,39.7,38.1,29.98,NNE,32,0.1,0.0,94,0.00,CLR,,0.00,WeatherDisplay:10.37,2013-09-26 10:42:00,
2013-09-26 06:47:00,39.8,38.2,29.98,NNE,32,0.0,0.0,94,0.00,CLR,,0.00,WeatherDisplay:10.37,2013-09-26 10:47:00,
2013-09-26 06:52:00,39.8,38.2,29.98,NNE,32,0.0,0.0,94,0.00,CLR,,0.00,WeatherDisplay:10.37,2013-09-26 10:52:00,
2013-09-26 06:57:00,39.8,38.2,29.98,NNE,32,0.0,0.0,94,0.00,CLR,,0.00,WeatherDisplay:10.37,2013-09-26 10:57:00,
2013-09-26 07:02:00,39.8,38.2,29.98,NNE,32,0.4,1.2,94,0.00,CLR,,0.00,WeatherDisplay:10.37,2013-09-26 11:02:00,
2013-09-26 07:07:00,39.8,38.2,29.98,NNE,32,0.0,0.0,94,0.00,CLR,,0.00,WeatherDisplay:10.37,2013-09-26 11:07:00,
2013-09-26 07:12:00,39.8,38.2,29.99,NNE,32,0.0,1.2,94,0.00,CLR,,0.00,WeatherDisplay:10.37,2013-09-26 11:12:00,
2013-09-26 07:17:00,40.0,38.1,29.99,NNE,32,0.0,0.0,93,0.00,CLR,,0.00,WeatherDisplay:10.37,2013-09-26 11:17:00,
2013-09-26 07:22:00,40.1,38.2,29.99,NNE,32,0.0,0.0,93,0.00,CLR,,0.00,WeatherDisplay:10.37,2013-09-26 11:22:00,
2013-09-26 07:27:00,40.2,38.6,29.99,NNE,32,0.0,0.0,94,0.00,CLR,,0.00,WeatherDisplay:10.37,2013-09-26 11:27:00,
2013-09-26 07:32:00,40.5,38.9,29.99,NNE,32,0.0,0.0,94,0.00,CLR,,0.00,WeatherDisplay:10.37,2013-09-26 11:32:00,
2013-09-26 07:37:00,40.8,38.9,29.99,NNE,32,0.0,0.0,93,0.00,CLR,,0.00,WeatherDisplay:10.37,2013-09-26 11:37:00,
2013-09-26 07:43:00,41.4,39.8,29.99,NNE,32,0.0,0.0,94,0.00,CLR,,0.00,WeatherDisplay:10.37,2013-09-26 11:43:00,
2013-09-26 07:48:00,42.0,40.4,30.00,NNE,32,0.0,0.0,94,0.00,CLR,,0.00,WeatherDisplay:10.37,2013-09-26 11:48:00,
2013-09-26 07:53:00,43.1,41.5,30.00,NNE,32,0.0,0.0,94,0.00,CLR,,0.00,WeatherDisplay:10.37,2013-09-26 11:53:00,
2013-09-26 07:58:00,44.3,42.7,30.00,NNE,32,0.0,0.0,94,0.00,CLR,,0.00,WeatherDisplay:10.37,2013-09-26 11:58:00,
2013-09-26 08:03:00,45.8,44.2,30.00,NNE,32,0.0,0.0,94,0.00,CLR,,0.00,WeatherDisplay:10.37,2013-09-26 12:03:00,
2013-09-26 08:08:00,46.4,44.8,30.00,NNE,32,0.0,0.0,94,0.00,CLR,,0.00,WeatherDisplay:10.37,2013-09-26 12:08:00,
2013-09-26 08:13:00,46.6,45.0,30.00,NNE,32,0.0,0.0,94,0.00,CLR,,0.00,WeatherDisplay:10.37,2013-09-26 12:13:00,
2013-09-26 08:18:00,46.9,45.3,30.00,NNE,32,0.0,0.0,94,0.00,CLR,,0.00,WeatherDisplay:10.37,2013-09-26 12:18:00,
2013-09-26 08:23:00,47.7,46.1,30.00,NNE,32,0.0,0.0,94,0.00,CLR,,0.00,WeatherDisplay:10.37,2013-09-26 12:23:00,
2013-09-26 08:28:00,48.5,46.9,30.00,NNE,32,0.0,0.0,94,0.00,CLR,,0.00,WeatherDisplay:10.37,2013-09-26 12:28:00,
2013-09-26 08:33:00,48.8,47.2,30.00,NNE,32,0.0,0.0,94,0.00,CLR,,0.00,WeatherDisplay:10.37,2013-09-26 12:33:00,
2013-09-26 08:38:00,49.1,47.4,30.01,NNE,32,0.0,0.0,94,0.00,CLR,,0.00,WeatherDisplay:10.37,2013-09-26 12:38:00,
2013-09-26 08:43:00,49.4,47.7,30.00,NNE,32,0.0,0.0,94,0.00,CLR,,0.00,WeatherDisplay:10.37,2013-09-26 12:43:00,
2013-09-26 08:48:00,49.8,48.1,30.01,NNE,32,0.0,0.0,94,0.00,CLR,,0.00,WeatherDisplay:10.37,2013-09-26 12:48:00,
2013-09-26 08:53:00,50.3,48.6,30.00,NNE,32,0.0,0.0,94,0.00,CLR,,0.00,WeatherDisplay:10.37,2013-09-26 12:53:00,
2013-09-26 08:58:00,50.8,49.1,30.01,NNE,32,0.0,0.0,94,0.00,CLR,,0.00,WeatherDisplay:10.37,2013-09-26 12:58:00,
2013-09-26 09:03:00,51.3,49.6,30.01,NNE,32,0.0,0.0,94,0.00,CLR,,0.00,WeatherDisplay:10.37,2013-09-26 13:03:00,
2013-09-26 09:08:00,51.7,50.0,30.01,NNE,32,0.0,0.0,94,0.00,CLR,,0.00,WeatherDisplay:10.37,2013-09-26 13:08:00,
2013-09-26 09:13:00,52.2,50.5,30.01,ENE,72,0.0,0.0,94,0.00,CLR,,0.00,WeatherDisplay:10.37,2013-09-26 13:13:00,
2013-09-26 09:18:00,52.6,50.9,30.01,South,181,0.0,0.0,94,0.00,CLR,,0.00,WeatherDisplay:10.37,2013-09-26 13:18:00,
2013-09-26 09:23:00,53.1,51.4,30.01,East,100,0.3,2.3,94,0.00,CLR,,0.00,WeatherDisplay:10.37,2013-09-26 13:23:00,
2013-09-26 09:28:00,53.5,51.8,30.01,East,100,0.8,2.3,94,0.00,CLR,,0.00,WeatherDisplay:10.37,2013-09-26 13:28:00,
2013-09-26 09:33:00,53.9,52.2,30.02,East,100,0.7,1.2,94,0.00,CLR,,0.00,WeatherDisplay:10.37,2013-09-26 13:33:00,
2013-09-26 09:38:00,54.1,52.4,30.02,East,100,0.0,0.0,94,0.00,CLR,,0.00,WeatherDisplay:10.37,2013-09-26 13:38:00,
2013-09-26 09:43:00,54.4,52.7,30.02,East,100,0.0,1.2,94,0.00,CLR,,0.00,WeatherDisplay:10.37,2013-09-26 13:43:00,
2013-09-26 09:48:00,54.7,53.0,30.02,East,100,0.0,0.0,94,0.00,CLR,,0.00,WeatherDisplay:10.37,2013-09-26 13:48:00,
2013-09-26 09:53:00,55.1,53.4,30.02,East,100,0.8,1.2,94,0.00,CLR,,0.00,WeatherDisplay:10.37,2013-09-26 13:53:00,
2013-09-26 09:58:00,55.3,53.6,30.02,East,100,0.0,0.0,94,0.00,CLR,,0.00,WeatherDisplay:10.37,2013-09-26 13:58:00,
2013-09-26 10:03:00,55.8,54.1,30.02,East,100,0.3,2.3,94,0.00,CLR,,0.00,WeatherDisplay:10.37,2013-09-26 14:03:00,
2013-09-26 10:08:00,56.3,54.6,30.02,East,99,0.8,1.2,94,0.00,CLR,,0.00,WeatherDisplay:10.37,2013-09-26 14:08:00,
2013-09-26 10:13:00,56.7,55.0,30.02,NE,48,0.4,1.2,94,0.00,CLR,,0.00,WeatherDisplay:10.37,2013-09-26 14:13:00,
2013-09-26 10:18:00,57.3,55.6,30.02,NE,47,0.7,1.2,94,0.00,CLR,,0.00,WeatherDisplay:10.37,2013-09-26 14:18:00,
2013-09-26 10:23:00,58.1,56.4,30.02,NE,34,1.2,2.3,94,0.00,CLR,,0.00,WeatherDisplay:10.37,2013-09-26 14:23:00,
2013-09-26 10:28:00,58.7,57.0,30.02,North,360,4.3,4.6,94,0.00,CLR,,0.00,WeatherDisplay:10.37,2013-09-26 14:28:00,
2013-09-26 10:33:00,59.3,57.6,30.02,North,351,3.5,4.6,94,0.00,CLR,,0.00,WeatherDisplay:10.37,2013-09-26 14:33:00,
2013-09-26 10:38:00,60.1,58.4,30.02,ESE,108,0.4,3.5,94,0.00,CLR,,0.00,WeatherDisplay:10.37,2013-09-26 14:38:00,
2013-09-26 10:43:00,60.7,59.0,30.02,NNW,344,4.1,4.6,94,0.00,CLR,,0.00,WeatherDisplay:10.37,2013-09-26 14:43:00,
2013-09-26 10:48:00,61.4,58.4,30.02,NNE,33,4.0,4.6,90,0.00,CLR,,0.00,WeatherDisplay:10.37,2013-09-26 14:48:00,
2013-09-26 10:53:00,62.0,58.1,30.02,NE,43,3.1,4.6,87,0.00,CLR,,0.00,WeatherDisplay:10.37,2013-09-26 14:53:00,
2013-09-26 10:58:00,62.8,58.5,30.02,NNE,32,3.1,5.8,86,0.00,CLR,,0.00,WeatherDisplay:10.37,2013-09-26 14:58:00,
2013-09-26 11:03:00,63.6,58.3,30.02,North,9,5.0,8.1,83,0.00,CLR,,0.00,WeatherDisplay:10.37,2013-09-26 15:03:00,
2013-09-26 11:08:00,64.3,58.7,30.02,North,9,3.1,4.6,82,0.00,CLR,,0.00,WeatherDisplay:10.37,2013-09-26 15:08:00,
2013-09-26 11:13:00,64.8,58.8,30.02,NE,44,2.7,5.8,81,0.00,CLR,,0.00,WeatherDisplay:10.37,2013-09-26 15:13:00,
2013-09-26 11:18:00,65.5,59.2,30.02,NNW,348,2.6,6.0,80,0.00,CLR,,0.00,WeatherDisplay:10.37,2013-09-26 15:18:00,
2013-09-26 11:23:00,65.9,59.6,30.02,NNW,339,2.6,5.0,80,0.00,CLR,,0.00,WeatherDisplay:10.37,2013-09-26 15:23:00,
2013-09-26 11:29:00,66.5,59.1,30.02,NW,321,4.0,4.6,77,0.00,CLR,,0.00,WeatherDisplay:10.37,2013-09-26 15:29:00,
2013-09-26 11:34:00,67.2,59.7,30.02,North,355,3.3,5.8,77,0.00,CLR,,0.00,WeatherDisplay:10.37,2013-09-26 15:34:00,
2013-09-26 11:39:00,67.8,58.8,30.02,North,355,1.1,4.0,73,0.00,CLR,,0.00,WeatherDisplay:10.37,2013-09-26 15:39:00,
2013-09-26 11:44:00,68.3,58.9,30.02,NNW,334,2.1,6.9,72,0.00,CLR,,0.00,WeatherDisplay:10.37,2013-09-26 15:44:00,
2013-09-26 11:49:00,68.6,59.2,30.02,NNE,30,0.0,1.2,72,0.00,CLR,,0.00,WeatherDisplay:10.37,2013-09-26 15:49:00,
2013-09-26 11:54:00,68.5,59.5,30.02,NNE,19,2.3,3.5,73,0.00,CLR,,0.00,WeatherDisplay:10.37,2013-09-26 15:54:00,
2013-09-26 11:59:00,68.9,58.7,30.02,ENE,57,0.1,1.2,70,0.00,CLR,,0.00,WeatherDisplay:10.37,2013-09-26 15:59:00,
2013-09-26 12:04:00,69.5,59.7,30.02,North,355,3.4,5.8,71,0.00,CLR,,0.00,WeatherDisplay:10.37,2013-09-26 16:04:00,
2013-09-26 12:09:00,69.8,59.2,30.02,NW,310,2.6,3.5,69,0.00,CLR,,0.00,WeatherDisplay:10.37,2013-09-26 16:09:00,
2013-09-26 12:14:00,70.2,60.4,30.01,North,349,3.5,4.6,71,0.00,CLR,,0.00,WeatherDisplay:10.37,2013-09-26 16:14:00,
2013-09-26 12:19:00,70.6,59.9,30.01,North,360,0.7,2.3,69,0.00,CLR,,0.00,WeatherDisplay:10.37,2013-09-26 16:19:00,
2013-09-26 12:24:00,70.6,59.1,30.02,ENE,63,2.1,3.5,67,0.00,CLR,,0.00,WeatherDisplay:10.37,2013-09-26 16:24:00,
2013-09-26 12:29:00,70.4,59.3,30.01,NE,45,1.7,3.5,68,0.00,CLR,,0.00,WeatherDisplay:10.37,2013-09-26 16:29:00,
2013-09-26 12:34:00,70.6,59.9,30.01,NNW,331,3.3,4.6,69,0.00,CLR,,0.00,WeatherDisplay:10.37,2013-09-26 16:34:00,
2013-09-26 12:39:00,71.2,59.7,30.01,NNE,30,1.2,3.5,67,0.00,CLR,,0.00,WeatherDisplay:10.37,2013-09-26 16:39:00,
2013-09-26 12:44:00,71.0,59.5,30.01,NNW,339,2.0,3.5,67,0.00,CLR,,0.00,WeatherDisplay:10.37,2013-09-26 16:44:00,
2013-09-26 12:49:00,71.2,59.3,30.01,SSW,204,1.1,2.3,66,0.00,CLR,,0.00,WeatherDisplay:10.37,2013-09-26 16:49:00,
2013-09-26 12:54:00,71.3,60.2,30.01,North,5,5.2,5.2,68,0.00,CLR,,0.00,WeatherDisplay:10.37,2013-09-26 16:54:00,
2013-09-26 12:59:00,71.7,59.3,30.01,North,350,4.2,4.2,65,0.00,CLR,,0.00,WeatherDisplay:10.37,2013-09-26 16:59:00,
2013-09-26 13:04:00,72.0,58.7,30.01,NNW,329,1.0,3.5,63,0.00,CLR,,0.00,WeatherDisplay:10.37,2013-09-26 17:04:00,
2013-09-26 13:09:00,72.5,60.1,30.01,NW,324,4.1,5.8,65,0.00,CLR,,0.00,WeatherDisplay:10.37,2013-09-26 17:09:00,
2013-09-26 13:14:00,72.9,60.0,30.01,North,355,3.1,5.8,64,0.00,CLR,,0.00,WeatherDisplay:10.37,2013-09-26 17:14:00,
2013-09-26 13:19:00,73.2,60.7,30.00,NE,53,4.7,4.7,65,0.00,CLR,,0.00,WeatherDisplay:10.37,2013-09-26 17:19:00,
2013-09-26 13:24:00,73.3,61.3,30.00,NE,50,1.6,3.5,66,0.00,CLR,,0.00,WeatherDisplay:10.37,2013-09-26 17:24:00,
2013-09-26 13:29:00,73.5,60.1,30.00,NW,317,4.2,5.8,63,0.00,CLR,,0.00,WeatherDisplay:10.37,2013-09-26 17:29:00,
2013-09-26 13:34:00,73.7,60.3,30.00,North,360,4.5,6.9,63,0.00,CLR,,0.00,WeatherDisplay:10.37,2013-09-26 17:34:00,
2013-09-26 13:39:00,73.4,58.7,29.99,North,355,3.1,5.8,60,0.00,CLR,,0.00,WeatherDisplay:10.37,2013-09-26 17:39:00,
2013-09-26 13:44:00,73.4,60.0,29.99,NE,55,1.3,2.3,63,0.00,CLR,,0.00,WeatherDisplay:10.37,2013-09-26 17:44:00,
2013-09-26 13:49:00,73.4,58.2,29.99,NE,56,0.1,2.3,59,0.00,CLR,,0.00,WeatherDisplay:10.37,2013-09-26 17:49:00,
2013-09-26 13:54:00,73.1,60.2,29.99,ENE,67,1.7,2.3,64,0.00,CLR,,0.00,WeatherDisplay:10.37,2013-09-26 17:54:00,
2013-09-26 13:59:00,72.7,59.4,29.99,NE,42,2.8,4.6,63,0.00,CLR,,0.00,WeatherDisplay:10.37,2013-09-26 17:59:00,
2013-09-26 14:04:00,72.2,58.9,29.99,North,360,1.1,2.3,63,0.00,CLR,,0.00,WeatherDisplay:10.37,2013-09-26 18:04:00,
2013-09-26 14:10:00,71.8,58.1,29.99,North,360,0.4,1.2,62,0.00,CLR,,0.00,WeatherDisplay:10.37,2013-09-26 18:10:00,
2013-09-26 14:15:00,71.3,57.6,29.99,North,360,0.0,1.2,62,0.00,CLR,,0.00,WeatherDisplay:10.37,2013-09-26 18:15:00,
2013-09-26 14:20:00,71.0,57.8,29.99,North,360,0.0,1.2,63,0.00,CLR,,0.00,WeatherDisplay:10.37,2013-09-26 18:20:00,
2013-09-26 14:25:00,71.0,58.6,29.99,North,360,1.2,3.5,65,0.00,CLR,,0.00,WeatherDisplay:10.37,2013-09-26 18:25:00,
2013-09-26 14:30:00,71.2,58.4,29.99,North,360,2.6,3.5,64,0.00,CLR,,0.00,WeatherDisplay:10.37,2013-09-26 18:30:00,
2013-09-26 14:35:00,72.0,58.3,29.99,North,360,1.9,3.0,62,0.00,CLR,,0.00,WeatherDisplay:10.37,2013-09-26 18:35:00,
2013-09-26 14:40:00,72.8,59.0,29.99,ENE,67,3.9,6.9,62,0.00,CLR,,0.00,WeatherDisplay:10.37,2013-09-26 18:40:00,
2013-09-26 14:45:00,72.7,58.5,29.99,NE,36,1.1,4.6,61,0.00,CLR,,0.00,WeatherDisplay:10.37,2013-09-26 18:45:00,
2013-09-26 14:50:00,72.2,57.5,29.99,NE,46,1.6,3.5,60,0.00,CLR,,0.00,WeatherDisplay:10.37,2013-09-26 18:50:00,
2013-09-26 14:55:00,72.1,58.8,29.99,NE,51,1.2,3.5,63,0.00,CLR,,0.00,WeatherDisplay:10.37,2013-09-26 18:55:00,
2013-09-26 15:00:00,72.7,58.0,29.99,ESE,114,1.8,3.5,60,0.00,CLR,,0.00,WeatherDisplay:10.37,2013-09-26 19:00:00,
2013-09-26 15:05:00,73.6,58.9,29.99,NNW,344,3.9,7.0,60,0.00,CLR,,0.00,WeatherDisplay:10.37,2013-09-26 19:05:00,
2013-09-26 15:10:00,74.1,56.4,29.99,NE,52,3.1,3.5,54,0.00,CLR,,0.00,WeatherDisplay:10.37,2013-09-26 19:10:00,
2013-09-26 15:15:00,73.8,55.6,29.99,NNW,334,4.0,5.8,53,0.00,CLR,,0.00,WeatherDisplay:10.37,2013-09-26 19:15:00,
2013-09-26 15:20:00,73.7,56.5,29.99,NNE,15,1.7,3.5,55,0.00,CLR,,0.00,WeatherDisplay:10.37,2013-09-26 19:20:00,
2013-09-26 15:25:00,73.3,56.2,29.99,North,5,3.3,5.8,55,0.00,CLR,,0.00,WeatherDisplay:10.37,2013-09-26 19:25:00,
2013-09-26 15:30:00,72.6,56.0,29.99,NNW,329,2.3,3.5,56,0.00,CLR,,0.00,WeatherDisplay:10.37,2013-09-26 19:30:00,
2013-09-26 15:35:00,72.1,56.5,29.99,NW,320,2.9,3.5,58,0.00,CLR,,0.00,WeatherDisplay:10.37,2013-09-26 19:35:00,
2013-09-26 15:40:00,72.2,57.5,29.99,NNE,28,4.9,4.9,60,0.00,CLR,,0.00,WeatherDisplay:10.37,2013-09-26 19:40:00,
2013-09-26 15:45:00,72.8,57.2,29.99,North,10,2.1,4.6,58,0.00,CLR,,0.00,WeatherDisplay:10.37,2013-09-26 19:45:00,
2013-09-26 15:50:00,73.5,57.8,29.99,NNE,33,3.5,6.9,58,0.00,CLR,,0.00,WeatherDisplay:10.37,2013-09-26 19:50:00,
2013-09-26 15:55:00,73.9,58.2,29.99,NE,46,4.0,4.6,58,0.00,CLR,,0.00,WeatherDisplay:10.37,2013-09-26 19:55:00,
2013-09-26 16:00:00,73.5,57.8,29.99,NE,49,1.7,1.7,58,0.00,CLR,,0.00,WeatherDisplay:10.37,2013-09-26 20:00:00,
2013-09-26 16:05:00,72.8,57.6,29.99,ENE,67,0.9,1.2,59,0.00,CLR,,0.00,WeatherDisplay:10.37,2013-09-26 20:05:00,
2013-09-26 16:10:00,72.4,57.7,29.99,ESE,116,0.9,2.3,60,0.00,CLR,,0.00,WeatherDisplay:10.37,2013-09-26 20:10:00,
2013-09-26 16:15:00,72.8,58.1,29.99,ENE,71,1.0,4.0,60,0.00,CLR,,0.00,WeatherDisplay:10.37,2013-09-26 20:15:00,
2013-09-26 16:20:00,73.1,57.4,29.99,East,88,1.3,3.5,58,0.00,CLR,,0.00,WeatherDisplay:10.37,2013-09-26 20:20:00,
2013-09-26 16:25:00,73.3,57.6,29.99,ENE,59,1.0,4.0,58,0.00,CLR,,0.00,WeatherDisplay:10.37,2013-09-26 20:25:00,
2013-09-26 16:30:00,73.5,58.3,29.99,ENE,66,1.0,4.0,59,0.00,CLR,,0.00,WeatherDisplay:10.37,2013-09-26 20:30:00,
2013-09-26 16:35:00,73.8,57.1,29.99,East,83,1.0,4.0,56,0.00,CLR,,0.00,WeatherDisplay:10.37,2013-09-26 20:35:00,
2013-09-26 16:40:00,73.6,57.4,30.00,East,85,1.0,3.0,57,0.00,CLR,,0.00,WeatherDisplay:10.37,2013-09-26 20:40:00,
2013-09-26 16:45:00,73.7,57.0,30.00,NE,51,1.0,4.0,56,0.00,CLR,,0.00,WeatherDisplay:10.37,2013-09-26 20:45:00,
2013-09-26 16:50:00,73.6,57.4,30.00,NE,35,2.0,4.0,57,0.00,CLR,,0.00,WeatherDisplay:10.37,2013-09-26 20:50:00,
2013-09-26 16:55:00,74.0,55.8,30.00,NNE,20,2.0,6.0,53,0.00,CLR,,0.00,WeatherDisplay:10.37,2013-09-26 20:55:00,
2013-09-26 17:00:00,74.3,55.0,30.00,NE,38,2.9,3.5,51,0.00,CLR,,0.00,WeatherDisplay:10.37,2013-09-26 21:00:00,
2013-09-26 17:05:00,74.0,55.8,30.00,ENE,59,0.5,3.5,53,0.00,CLR,,0.00,WeatherDisplay:10.37,2013-09-26 21:05:00,
2013-09-26 17:10:00,74.0,57.3,30.00,NNE,19,0.8,1.2,56,0.00,CLR,,0.00,WeatherDisplay:10.37,2013-09-26 21:10:00,
2013-09-26 17:15:00,73.7,56.5,30.00,NNE,29,1.0,8.0,55,0.00,CLR,,0.00,WeatherDisplay:10.37,2013-09-26 21:15:00,
2013-09-26 17:20:00,73.3,56.2,30.00,NE,34,2.7,3.5,55,0.00,CLR,,0.00,WeatherDisplay:10.37,2013-09-26 21:20:00,
2013-09-26 17:25:00,73.3,56.2,30.00,NE,46,3.0,5.0,55,0.00,CLR,,0.00,WeatherDisplay:10.37,2013-09-26 21:25:00,
2013-09-26 17:30:00,73.2,56.6,30.00,NNE,32,1.0,5.0,56,0.00,CLR,,0.00,WeatherDisplay:10.37,2013-09-26 21:30:00,
2013-09-26 17:35:00,73.3,56.7,30.00,NNE,29,0.0,2.0,56,0.00,CLR,,0.00,WeatherDisplay:10.37,2013-09-26 21:35:00,
2013-09-26 17:40:00,73.4,55.7,30.00,NE,50,0.0,2.0,54,0.00,CLR,,0.00,WeatherDisplay:10.37,2013-09-26 21:40:00,
2013-09-26 17:45:00,73.3,56.2,30.01,NE,55,1.0,3.0,55,0.00,CLR,,0.00,WeatherDisplay:10.37,2013-09-26 21:45:00,
2013-09-26 17:50:00,73.2,56.6,30.01,NE,50,0.5,2.3,56,0.00,CLR,,0.00,WeatherDisplay:10.37,2013-09-26 21:50:00,
2013-09-26 17:55:00,73.0,56.4,30.01,NE,50,0.5,2.3,56,0.00,CLR,,0.00,WeatherDisplay:10.37,2013-09-26 21:55:00,
2013-09-26 18:00:00,72.7,56.1,30.01,East,82,0.3,1.2,56,0.00,CLR,,0.00,WeatherDisplay:10.37,2013-09-26 22:00:00,
2013-09-26 18:05:00,71.6,56.6,30.01,East,97,0.0,2.0,59,0.00,CLR,,0.00,WeatherDisplay:10.37,2013-09-26 22:05:00,
2013-09-26 18:10:00,70.4,56.3,30.01,ESE,113,0.8,2.3,61,0.00,CLR,,0.00,WeatherDisplay:10.37,2013-09-26 22:10:00,
2013-09-26 18:15:00,70.0,56.9,30.01,ESE,110,1.0,2.0,63,0.00,CLR,,0.00,WeatherDisplay:10.37,2013-09-26 22:15:00,
2013-09-26 18:20:00,69.6,57.3,30.01,ESE,113,0.0,2.0,65,0.00,CLR,,0.00,WeatherDisplay:10.37,2013-09-26 22:20:00,
2013-09-26 18:25:00,68.9,57.5,30.01,ESE,118,1.0,2.0,67,0.00,CLR,,0.00,WeatherDisplay:10.37,2013-09-26 22:25:00,
2013-09-26 18:30:00,68.2,57.2,30.01,SE,138,1.0,3.0,68,0.00,CLR,,0.00,WeatherDisplay:10.37,2013-09-26 22:30:00,
2013-09-26 18:35:00,67.2,57.5,30.01,ESE,121,1.0,3.0,71,0.00,CLR,,0.00,WeatherDisplay:10.37,2013-09-26 22:35:00,
2013-09-26 18:40:00,66.4,57.4,30.01,ESE,121,1.0,4.0,73,0.00,CLR,,0.00,WeatherDisplay:10.37,2013-09-26 22:40:00,
2013-09-26 18:45:00,65.6,57.4,30.02,SSE,147,0.0,1.0,75,0.00,CLR,,0.00,WeatherDisplay:10.37,2013-09-26 22:45:00,
2013-09-26 18:50:00,65.0,57.2,30.02,SSE,154,0.0,2.0,76,0.00,CLR,,0.00,WeatherDisplay:10.37,2013-09-26 22:50:00,
2013-09-26 18:55:00,64.2,57.2,30.02,SSE,153,0.0,0.0,78,0.00,CLR,,0.00,WeatherDisplay:10.37,2013-09-26 22:55:00,
2013-09-26 19:00:00,63.6,56.7,30.02,SSE,153,0.0,0.0,78,0.00,CLR,,0.00,WeatherDisplay:10.37,2013-09-26 23:00:00,
2013-09-26 19:05:00,63.1,56.8,30.03,SSE,153,0.0,2.0,80,0.00,CLR,,0.00,WeatherDisplay:10.37,2013-09-26 23:05:00,
2013-09-26 19:10:00,62.3,56.4,30.03,SW,220,0.0,2.0,81,0.00,CLR,,0.00,WeatherDisplay:10.37,2013-09-26 23:10:00,
2013-09-26 19:15:00,61.8,56.2,30.03,West,280,0.0,1.0,82,0.00,CLR,,0.00,WeatherDisplay:10.37,2013-09-26 23:15:00,
2013-09-26 19:20:00,61.2,56.0,30.03,West,280,0.0,2.0,83,0.00,CLR,,0.00,WeatherDisplay:10.37,2013-09-26 23:20:00,
2013-09-26 19:25:00,60.7,55.8,30.03,West,280,1.0,2.0,84,0.00,CLR,,0.00,WeatherDisplay:10.37,2013-09-26 23:25:00,
2013-09-26 19:30:00,60.2,55.3,30.03,West,280,1.0,2.0,84,0.00,CLR,,0.00,WeatherDisplay:10.37,2013-09-26 23:30:00,
2013-09-26 19:35:00,59.7,55.1,30.03,West,280,0.0,1.0,85,0.00,CLR,,0.00,WeatherDisplay:10.37,2013-09-26 23:35:00,
2013-09-26 19:40:00,59.1,54.6,30.03,WNW,293,1.0,2.0,85,0.00,CLR,,0.00,WeatherDisplay:10.37,2013-09-26 23:40:00,
2013-09-26 19:45:00,58.6,54.4,30.03,WNW,301,1.0,2.0,86,0.00,CLR,,0.00,WeatherDisplay:10.37,2013-09-26 23:45:00,
2013-09-26 19:50:00,58.0,54.2,30.04,NW,307,1.0,2.0,87,0.00,CLR,,0.00,WeatherDisplay:10.37,2013-09-26 23:50:00,
2013-09-26 19:55:00,57.5,54.0,30.04,NW,309,0.0,0.0,88,0.00,CLR,,0.00,WeatherDisplay:10.37,2013-09-26 23:55:00,
2013-09-26 20:00:00,57.2,54.0,30.04,NW,309,0.0,0.0,89,0.00,CLR,,0.00,WeatherDisplay:10.37,2013-09-27 00:00:00,
2013-09-26 20:05:00,56.8,53.6,30.04,NW,309,0.0,0.0,89,0.00,CLR,,0.00,WeatherDisplay:10.37,2013-09-27 00:05:00,
2013-09-26 20:10:00,56.4,53.2,30.05,NW,309,0.0,0.0,89,0.00,CLR,,0.00,WeatherDisplay:10.37,2013-09-27 00:10:00,
2013-09-26 20:16:00,55.9,52.7,30.05,NW,309,0.1,1.2,89,0.00,CLR,,0.00,WeatherDisplay:10.37,2013-09-27 00:16:00,
2013-09-26 20:21:00,55.6,53.0,30.05,NW,312,0.7,1.2,91,0.00,CLR,,0.00,WeatherDisplay:10.37,2013-09-27 00:21:00,
2013-09-26 20:26:00,55.5,53.2,30.05,NNW,344,0.1,1.2,92,0.00,CLR,,0.00,WeatherDisplay:10.37,2013-09-27 00:26:00,
2013-09-26 20:31:00,55.5,53.2,30.05,NNW,344,0.4,2.3,92,0.00,CLR,,0.00,WeatherDisplay:10.37,2013-09-27 00:31:00,
2013-09-26 20:36:00,55.3,52.7,30.05,NNW,344,0.2,1.2,91,0.00,CLR,,0.00,WeatherDisplay:10.37,2013-09-27 00:36:00,
2013-09-26 20:41:00,55.0,52.7,30.06,NNW,344,0.6,2.3,92,0.00,CLR,,0.00,WeatherDisplay:10.37,2013-09-27 00:41:00,
2013-09-26 20:46:00,54.8,52.5,30.06,NNW,344,1.4,3.5,92,0.00,CLR,,0.00,WeatherDisplay:10.37,2013-09-27 00:46:00,
2013-09-26 20:52:00,54.6,52.3,30.06,NNW,344,0.2,1.0,92,0.00,CLR,,0.00,WeatherDisplay:10.37,2013-09-27 00:52:00,
2013-09-26 20:57:00,54.4,52.1,30.06,NNW,344,0.0,0.0,92,0.00,CLR,,0.00,WeatherDisplay:10.37,2013-09-27 00:57:00,
2013-09-26 21:02:00,54.2,51.9,30.06,NNW,344,0.0,0.0,92,0.00,CLR,,0.00,WeatherDisplay:10.37,2013-09-27 01:02:00,
2013-09-26 21:07:00,53.9,51.6,30.06,NNW,344,0.0,1.2,92,0.00,CLR,,0.00,WeatherDisplay:10.37,2013-09-27 01:07:00,
2013-09-26 21:12:00,53.6,51.3,30.06,NNW,344,0.0,0.0,92,0.00,CLR,,0.00,WeatherDisplay:10.37,2013-09-27 01:12:00,
2013-09-26 21:17:00,53.4,51.1,30.06,NNW,344,0.0,0.0,92,0.00,CLR,,0.00,WeatherDisplay:10.37,2013-09-27 01:17:00,
2013-09-26 21:22:00,53.1,50.8,30.07,NNW,344,0.0,0.0,92,0.00,CLR,,0.00,WeatherDisplay:10.37,2013-09-27 01:22:00,
2013-09-26 21:27:00,52.8,50.5,30.07,NNW,344,0.0,0.0,92,0.00,CLR,,0.00,WeatherDisplay:10.37,2013-09-27 01:27:00,
2013-09-26 21:32:00,52.5,50.2,30.07,NNW,344,0.0,0.0,92,0.00,CLR,,0.00,WeatherDisplay:10.37,2013-09-27 01:32:00,
2013-09-26 21:37:00,52.4,50.4,30.07,NNW,344,0.0,0.0,93,0.00,CLR,,0.00,WeatherDisplay:10.37,2013-09-27 01:37:00,
2013-09-26 21:42:00,52.3,50.3,30.07,NNW,344,0.0,0.0,93,0.00,CLR,,0.00,WeatherDisplay:10.37,2013-09-27 01:42:00,
2013-09-26 21:47:00,52.2,50.2,30.07,NNW,344,0.0,0.0,93,0.00,CLR,,0.00,WeatherDisplay:10.37,2013-09-27 01:47:00,
2013-09-26 21:52:00,52.1,50.1,30.07,NNW,344,0.0,0.0,93,0.00,CLR,,0.00,WeatherDisplay:10.37,2013-09-27 01:52:00,
2013-09-26 21:57:00,52.0,50.0,30.08,NNW,344,0.2,1.2,93,0.00,CLR,,0.00,WeatherDisplay:10.37,2013-09-27 01:57:00,
2013-09-26 22:02:00,52.2,50.2,30.08,NNW,344,0.0,0.0,93,0.00,CLR,,0.00,WeatherDisplay:10.37,2013-09-27 02:02:00,
2013-09-26 22:07:00,52.6,50.6,30.08,NNW,344,0.0,0.0,93,0.00,CLR,,0.00,WeatherDisplay:10.37,2013-09-27 02:07:00,
2013-09-26 22:12:00,52.9,50.9,30.08,NNW,344,0.0,0.0,93,0.00,CLR,,0.00,WeatherDisplay:10.37,2013-09-27 02:12:00,
2013-09-26 22:17:00,53.5,51.2,30.08,NNW,344,0.0,0.0,92,0.00,CLR,,0.00,WeatherDisplay:10.37,2013-09-27 02:17:00,
2013-09-26 22:22:00,53.7,51.7,30.08,NNW,344,0.0,0.0,93,0.00,CLR,,0.00,WeatherDisplay:10.37,2013-09-27 02:22:00,
2013-09-26 22:27:00,53.6,51.6,30.08,NNW,344,0.0,0.0,93,0.00,CLR,,0.00,WeatherDisplay:10.37,2013-09-27 02:27:00,
2013-09-26 22:32:00,53.5,51.5,30.08,NNW,344,0.0,0.0,93,0.00,CLR,,0.00,WeatherDisplay:10.37,2013-09-27 02:32:00,
2013-09-26 22:37:00,53.3,51.3,30.08,NNW,344,0.0,0.0,93,0.00,CLR,,0.00,WeatherDisplay:10.37,2013-09-27 02:37:00,
2013-09-26 22:42:00,53.0,51.0,30.08,NNW,344,0.2,1.2,93,0.00,CLR,,0.00,WeatherDisplay:10.37,2013-09-27 02:42:00,
2013-09-26 22:47:00,52.7,50.7,30.08,NNW,344,0.0,1.0,93,0.00,CLR,,0.00,WeatherDisplay:10.37,2013-09-27 02:47:00,
2013-09-26 22:52:00,52.3,50.3,30.08,NNW,344,0.0,0.0,93,0.00,CLR,,0.00,WeatherDisplay:10.37,2013-09-27 02:52:00,
2013-09-26 22:57:00,52.1,50.1,30.08,NNW,344,0.0,0.0,93,0.00,CLR,,0.00,WeatherDisplay:10.37,2013-09-27 02:57:00,
2013-09-26 23:02:00,51.7,49.7,30.08,NNW,344,0.0,0.0,93,0.00,CLR,,0.00,WeatherDisplay:10.37,2013-09-27 03:02:00,
2013-09-26 23:07:00,51.4,49.4,30.08,NNW,344,0.0,0.0,93,0.00,CLR,,0.00,WeatherDisplay:10.37,2013-09-27 03:07:00,
2013-09-26 23:12:00,51.2,49.2,30.09,NNW,344,0.0,0.0,93,0.00,CLR,,0.00,WeatherDisplay:10.37,2013-09-27 03:12:00,
2013-09-26 23:17:00,50.9,48.9,30.09,NNW,344,0.0,0.0,93,0.00,CLR,,0.00,WeatherDisplay:10.37,2013-09-27 03:17:00,
2013-09-26 23:22:00,50.7,48.7,30.09,NNW,344,0.0,0.0,93,0.00,CLR,,0.00,WeatherDisplay:10.37,2013-09-27 03:22:00,
2013-09-26 23:27:00,50.6,48.7,30.09,NNW,344,0.0,0.0,93,0.00,CLR,,0.00,WeatherDisplay:10.37,2013-09-27 03:27:00,
2013-09-26 23:32:00,50.4,48.5,30.09,NNW,344,0.0,0.0,93,0.00,CLR,,0.00,WeatherDisplay:10.37,2013-09-27 03:32:00,
2013-09-26 23:37:00,50.2,48.3,30.09,NNW,344,0.0,0.0,93,0.00,CLR,,0.00,WeatherDisplay:10.37,2013-09-27 03:37:00,
2013-09-26 23:42:00,50.1,48.2,30.09,NNW,344,0.0,0.0,93,0.00,CLR,,0.00,WeatherDisplay:10.37,2013-09-27 03:42:00,
2013-09-26 23:47:00,49.9,48.0,30.09,NNW,344,0.0,0.0,93,0.00,CLR,,0.00,WeatherDisplay:10.37,2013-09-27 03:47:00,
2013-09-26 23:52:00,49.7,47.8,30.09,NNW,344,0.0,0.0,93,0.00,CLR,,0.00,WeatherDisplay:10.37,2013-09-27 03:52:00,
2013-09-26 23:57:00,49.4,47.5,30.09,NNW,344,0.0,0.0,93,0.00,CLR,,0.00,WeatherDisplay:10.37,2013-09-27 03:57:00,